Česky Dansk Deutsch English Espańol Suomi Français Magyar Italiano Nederlands norsk Polski Portuguęs svenska Türkçe

 

Het Weer

Bale-Mulhouse (Frankrijk)

23:30, 21 augustus 2016 (GMT)

NWNNE
WE
SWSSE
Home            
Bale-Mulhouse Colmar Grenchen Belfort Bern / Belp Zurich-Kloten Les Eplatures Neuchatel Donaueschingen / Villingen Lahr, CAN-AFB Luxeuil Payerne Strasbourg Besancon Konstanz Messstetten Lausanne Karlsruhe, Baden Wurttemberg Friedrichshafen Saint Gallen-Altenrhein Nancy / Essey Sion Nancy / Ochey

Om een weerknop op uw website of weblog te plaatsen, copieer onderstaande code en plak die in uw pagina. In het eerste vakje staat HTML-code, in het tweede vakje UBB-code.


Add to Google

Details

Láthatóság általában:Nagyobb, mint 10000 m, 10 km, 32800 ft, 6.2 miles
Clouds:CAVOC
Hőmérséklet:12°C, 54°F
Harmatpont:10°C, 50°F
Légköri nyomás:1027 hPa, 770.3 mmHg, 30.33 inHg, 1.014 atm
Relatív páratartalom:87.6 %
METAR:LFSB 212330Z AUTO 00000KT CAVOK 12/10 Q1027 TEMPO 4000 BR

Snelkoppelingen

Actuele weersinformatie van de hele wereld. Voeg locaties toe met het plus (+) symbool. Deze snelkoppelingen kunnen worden toegevoegd aan Google.

Lid van de Technetium groep

website free tracking
StatCounter NetStat W3C Validator

23-05-2022 02:24:24
astro.technetium.be money.technetium.be phote.technetium.be tafeltennistafel.technetium.be www.ligfiets.net